Time;durP1;ratioP1;P1;durP2;ratioP2;P2;SDS_P1;SDS_P2;PMS_P1;PMS_P2;Temp;Humidity;BMP_temperature;BMP_pressure;BME280_temperature;BME280_humidity;BME280_pressure;Samples;Min_cycle;Max_cycle;Signal;HPM_P1;HPM_P2
2022/03/31 00:01:39;;;;;;;2.17;1.52;;;;;;;3.49;80.62;100451.44;5066754;28;20028;-60
2022/03/31 00:04:04;;;;;;;2.58;1.70;;;;;;;3.24;80.65;100466.44;5067820;28;20052;-58
2022/03/31 00:06:29;;;;;;;2.65;1.27;;;;;;;3.15;81.20;100457.84;5067809;28;20499;-60
2022/03/31 00:08:55;;;;;;;2.85;1.70;;;;;;;3.20;81.81;100460.41;5065969;28;20586;-59
2022/03/31 00:11:21;;;;;;;2.75;1.67;;;;;;;3.12;82.25;100459.63;5067626;28;20032;-58
2022/03/31 00:13:47;;;;;;;2.00;1.80;;;;;;;3.22;81.87;100450.84;5067221;28;20029;-57
2022/03/31 00:16:12;;;;;;;3.08;1.70;;;;;;;2.91;81.77;100448.50;5067217;28;20407;-58
2022/03/31 00:18:38;;;;;;;1.67;1.58;;;;;;;2.78;82.11;100451.25;5067088;28;20032;-58
2022/03/31 00:24:25;;;;;;;1.52;1.42;;;;;;;3.09;81.23;100452.69;5066510;28;20429;-60
2022/03/31 00:26:51;;;;;;;3.47;1.83;;;;;;;2.84;81.52;100452.03;5065195;28;20028;-58
2022/03/31 00:29:16;;;;;;;4.07;1.90;;;;;;;3.15;81.04;100454.38;5067205;28;20107;-61
2022/03/31 00:31:42;;;;;;;3.67;2.10;;;;;;;3.04;81.05;100459.69;5065619;28;20020;-59
2022/03/31 00:34:07;;;;;;;2.40;1.80;;;;;;;3.16;81.17;100456.09;5067186;28;20088;-57
2022/03/31 00:36:32;;;;;;;2.50;1.90;;;;;;;3.03;81.08;100450.16;5066931;28;20032;-59
2022/03/31 00:41:42;;;;;;;1.83;1.73;;;;;;;2.52;82.88;100448.81;5067146;28;20125;-58
2022/03/31 00:44:08;;;;;;;2.42;2.25;;;;;;;2.67;82.71;100445.22;5064816;28;20044;-62
2022/03/31 00:46:34;;;;;;;1.58;1.42;;;;;;;2.90;81.31;100447.66;5067574;28;20395;-58
2022/03/31 00:49:01;;;;;;;1.67;1.58;;;;;;;2.82;81.97;100441.66;5065920;28;20044;-58
2022/03/31 00:51:30;;;;;;;1.88;1.77;;;;;;;2.88;82.00;100444.22;5066106;28;20032;-59
2022/03/31 00:53:56;;;;;;;1.97;1.77;;;;;;;2.61;82.90;100443.53;5066601;28;20478;-59
2022/03/31 00:56:24;;;;;;;2.70;2.00;;;;;;;2.64;83.05;100447.84;5065655;28;20278;-58
2022/03/31 00:58:50;;;;;;;1.77;1.67;;;;;;;2.86;82.63;100437.28;5064805;28;20032;-60
2022/03/31 01:01:17;;;;;;;1.73;1.60;;;;;;;2.78;82.53;100439.94;5066571;28;20064;-59
2022/03/31 01:03:42;;;;;;;2.38;1.75;;;;;;;2.73;82.97;100439.97;5064912;28;20025;-58
2022/03/31 01:06:08;;;;;;;1.75;1.65;;;;;;;2.90;82.62;100432.06;5067219;22;20052;-59
2022/03/31 01:08:33;;;;;;;2.35;1.80;;;;;;;2.69;82.78;100430.47;5045769;28;20235;-60
2022/03/31 01:10:59;;;;;;;2.15;2.03;;;;;;;2.73;82.92;100421.78;5046072;28;20029;-59
2022/03/31 01:13:24;;;;;;;1.98;1.88;;;;;;;2.76;82.42;100424.34;5046765;28;20021;-59
2022/03/31 01:15:50;;;;;;;1.98;1.88;;;;;;;2.74;82.68;100427.84;5046143;28;20039;-60
2022/03/31 01:18:15;;;;;;;2.28;2.08;;;;;;;2.68;83.00;100417.47;5046547;28;20483;-59
2022/03/31 01:20:40;;;;;;;3.10;1.83;;;;;;;2.74;82.92;100410.47;5045962;28;20489;-60
2022/03/31 01:23:11;;;;;;;2.10;1.70;;;;;;;2.76;83.18;100408.75;5045885;28;20031;-60
2022/03/31 01:25:36;;;;;;;2.33;2.13;;;;;;;2.87;82.50;100420.78;5046550;28;20017;-61
2022/03/31 01:28:02;;;;;;;2.45;2.25;;;;;;;2.90;82.34;100419.03;5045149;28;20503;-59
2022/03/31 01:30:27;;;;;;;2.42;2.22;;;;;;;2.99;82.23;100415.50;5028083;28;20131;-60
2022/03/31 01:32:52;;;;;;;2.25;2.05;;;;;;;3.15;81.38;100415.31;5045707;28;20047;-60
2022/03/31 01:35:18;;;;;;;2.30;2.10;;;;;;;2.90;82.33;100411.22;5045323;28;20085;-60
2022/03/31 01:37:43;;;;;;;2.80;2.60;;;;;;;2.59;82.00;100406.25;5045144;28;20053;-60
2022/03/31 01:40:10;;;;;;;2.30;2.05;;;;;;;2.69;82.46;100401.88;5046507;28;20025;-59
2022/03/31 01:42:35;;;;;;;2.60;2.40;;;;;;;2.67;82.12;100387.16;5046598;28;20021;-59
2022/03/31 01:45:02;;;;;;;2.60;2.45;;;;;;;2.47;82.99;100391.63;5046557;28;20019;-60
2022/03/31 01:47:27;;;;;;;2.40;2.20;;;;;;;2.61;82.83;100390.63;5028006;28;20033;-59
2022/03/31 01:49:53;;;;;;;2.10;2.00;;;;;;;2.89;82.04;100398.22;5045483;28;20452;-60
2022/03/31 01:52:21;;;;;;;2.47;2.13;;;;;;;2.73;82.25;100390.56;5044676;28;20029;-60
2022/03/31 01:54:47;;;;;;;3.20;2.00;;;;;;;2.55;82.58;100382.88;5045563;28;20729;-61
2022/03/31 01:57:13;;;;;;;2.58;2.38;;;;;;;2.45;83.28;100372.56;5045090;28;20073;-60
2022/03/31 01:59:43;;;;;;;2.42;2.22;;;;;;;2.40;83.27;100367.41;5044828;28;20116;-60
2022/03/31 02:02:10;;;;;;;2.70;2.47;;;;;;;2.48;82.59;100371.69;5045749;28;20052;-60
2022/03/31 02:04:36;;;;;;;2.60;2.40;;;;;;;2.57;82.14;100379.41;5044761;28;20025;-61
2022/03/31 02:07:01;;;;;;;2.60;2.40;;;;;;;2.36;82.46;100375.22;5044654;28;20087;-60
2022/03/31 02:09:27;;;;;;;2.58;2.38;;;;;;;2.48;81.84;100377.75;5045447;28;20040;-61
2022/03/31 02:11:52;;;;;;;2.88;2.55;;;;;;;2.33;82.61;100375.25;5043942;28;20029;-61
2022/03/31 02:14:19;;;;;;;2.70;2.50;;;;;;;2.26;83.13;100369.25;5045417;28;20025;-62
2022/03/31 02:16:46;;;;;;;2.65;2.45;;;;;;;2.15;83.67;100377.13;5044471;28;20050;-61
2022/03/31 02:19:12;;;;;;;2.72;2.53;;;;;;;2.29;83.42;100378.75;5044788;28;20025;-61
2022/03/31 02:21:37;;;;;;;2.22;2.13;;;;;;;2.21;83.52;100371.88;5044601;28;20035;-60
2022/03/31 02:24:03;;;;;;;3.00;2.25;;;;;;;2.42;83.27;100372.59;5044031;28;20021;-62
2022/03/31 02:26:29;;;;;;;3.15;2.85;;;;;;;2.57;82.92;100381.16;5044769;28;20033;-61
2022/03/31 02:28:54;;;;;;;6.10;3.10;;;;;;;2.47;83.23;100368.19;5044640;28;20064;-62
2022/03/31 02:31:20;;;;;;;2.70;2.50;;;;;;;2.60;82.73;100360.31;5044276;28;20025;-61
2022/03/31 02:33:45;;;;;;;3.03;2.83;;;;;;;2.47;83.25;100365.59;5044644;28;20043;-62
2022/03/31 02:36:11;;;;;;;3.33;2.95;;;;;;;2.13;84.13;100356.31;5044094;28;20021;-61
2022/03/31 02:38:36;;;;;;;3.95;3.00;;;;;;;2.28;84.46;100354.47;5043032;28;20029;-63
2022/03/31 02:41:05;;;;;;;2.55;2.35;;;;;;;2.52;83.35;100356.03;5027643;28;20048;-65
2022/03/31 02:43:31;;;;;;;3.47;2.70;;;;;;;2.57;83.00;100353.41;5043287;28;20479;-64
2022/03/31 02:45:56;;;;;;;5.05;2.67;;;;;;;2.52;83.00;100349.97;5045305;28;20035;-65
2022/03/31 02:48:22;;;;;;;3.00;2.42;;;;;;;2.61;83.33;100347.28;5043779;28;20017;-63
2022/03/31 02:50:47;;;;;;;2.38;2.22;;;;;;;2.84;82.49;100341.03;5044578;28;20025;-66
2022/03/31 02:55:56;;;;;;;2.75;2.20;;;;;;;2.90;82.71;100327.06;5044356;28;20597;-66
2022/03/31 02:58:21;;;;;;;3.28;2.00;;;;;;;2.76;83.19;100330.69;5044667;28;20021;-67
2022/03/31 03:00:48;;;;;;;2.78;2.13;;;;;;;2.77;83.09;100329.78;5044350;28;20029;-65
2022/03/31 03:03:14;;;;;;;3.25;2.05;;;;;;;2.85;82.63;100339.25;5044862;28;20463;-66
2022/03/31 03:05:42;;;;;;;2.95;2.22;;;;;;;3.01;82.01;100322.63;5044349;28;20144;-65
2022/03/31 03:08:07;;;;;;;3.58;1.83;;;;;;;2.86;81.80;100325.41;5043621;28;20036;-65
2022/03/31 03:10:33;;;;;;;4.13;2.25;;;;;;;2.88;82.20;100328.81;5045471;28;20025;-65
2022/03/31 03:12:58;;;;;;;3.60;2.22;;;;;;;3.04;82.62;100334.72;5044377;28;20025;-65
2022/03/31 03:15:25;;;;;;;3.65;2.10;;;;;;;3.14;82.03;100327.69;5043564;28;20025;-64
2022/03/31 03:17:50;;;;;;;4.03;1.98;;;;;;;2.99;82.09;100326.13;5044019;28;20029;-65
2022/03/31 03:20:16;;;;;;;3.70;1.83;;;;;;;3.01;82.36;100330.41;5026491;28;20024;-64
2022/03/31 03:22:46;;;;;;;4.53;2.40;;;;;;;2.88;82.71;100331.44;5046350;28;20052;-64
2022/03/31 03:25:12;;;;;;;3.63;2.17;;;;;;;3.18;81.98;100321.56;5047641;28;20037;-64
2022/03/31 03:27:39;;;;;;;4.38;3.10;;;;;;;3.16;82.22;100316.38;5048493;28;20021;-65
2022/03/31 03:30:05;;;;;;;2.78;2.58;;;;;;;3.17;82.02;100314.63;5048517;28;20036;-64
2022/03/31 03:32:30;;;;;;;3.95;2.53;;;;;;;3.19;81.53;100315.47;5047173;28;20025;-64
2022/03/31 03:34:55;;;;;;;3.90;2.92;;;;;;;3.32;81.71;100328.34;5047827;28;20090;-65
2022/03/31 03:37:21;;;;;;;3.33;2.38;;;;;;;3.35;81.51;100320.50;5046458;28;20025;-65
2022/03/31 03:39:46;;;;;;;5.22;2.70;;;;;;;3.17;81.91;100322.44;5047787;28;20036;-66
2022/03/31 03:42:12;;;;;;;6.55;2.67;;;;;;;3.36;81.42;100315.28;5030397;28;20052;-65
2022/03/31 03:44:37;;;;;;;4.90;3.38;;;;;;;3.37;80.98;100316.16;5046713;28;20546;-66
2022/03/31 03:47:02;;;;;;;4.43;3.03;;;;;;;3.06;81.87;100327.78;5049120;28;20044;-64
2022/03/31 03:49:28;;;;;;;5.22;3.15;;;;;;;3.32;81.57;100317.94;5047463;28;20150;-65
2022/03/31 03:51:53;;;;;;;4.55;3.25;;;;;;;3.36;81.10;100324.81;5046904;28;20025;-64
2022/03/31 03:54:18;;;;;;;6.30;2.72;;;;;;;3.25;81.01;100332.78;5047471;28;20032;-64
2022/03/31 03:56:44;;;;;;;5.25;3.05;;;;;;;3.20;81.23;100329.34;5047641;28;20029;-65
2022/03/31 03:59:09;;;;;;;3.47;3.17;;;;;;;3.29;81.06;100324.88;5047500;28;20033;-65
2022/03/31 04:01:34;;;;;;;3.55;3.03;;;;;;;3.35;80.69;100329.19;5047714;28;20048;-65
2022/03/31 04:04:00;;;;;;;6.30;3.63;;;;;;;3.40;80.64;100316.97;5048171;28;20472;-64
2022/03/31 04:06:25;;;;;;;6.00;3.17;;;;;;;3.57;80.44;100320.22;5028408;28;20050;-64
2022/03/31 04:08:50;;;;;;;7.25;3.05;;;;;;;3.49;81.00;100325.56;5045699;28;21322;-65
2022/03/31 04:11:16;;;;;;;4.22;3.08;;;;;;;3.55;80.25;100330.66;5029762;28;20033;-66
2022/03/31 04:13:42;;;;;;;4.75;3.22;;;;;;;3.55;80.70;100320.25;5028573;28;20028;-65
2022/03/31 04:16:08;;;;;;;3.60;3.20;;;;;;;3.64;80.18;100327.94;5047051;28;20471;-64
2022/03/31 04:18:33;;;;;;;6.38;3.13;;;;;;;3.57;80.73;100330.63;5047120;28;20040;-66
2022/03/31 04:21:02;;;;;;;4.32;3.30;;;;;;;3.59;81.01;100334.97;5047044;28;20420;-66
2022/03/31 04:23:27;;;;;;;7.05;3.45;;;;;;;3.45;81.25;100329.94;5045953;28;20032;-67
2022/03/31 04:25:53;;;;;;;4.72;2.50;;;;;;;3.57;80.93;100331.50;5043435;28;20028;-66
2022/03/31 04:28:18;;;;;;;5.25;2.70;;;;;;;3.46;80.87;100330.81;5045954;28;20029;-66
2022/03/31 04:30:43;;;;;;;3.05;2.28;;;;;;;3.55;80.72;100325.44;5047048;28;20025;-65
2022/03/31 04:33:09;;;;;;;3.63;2.83;;;;;;;3.52;80.44;100325.47;5045709;28;20178;-65
2022/03/31 04:35:36;;;;;;;4.85;2.47;;;;;;;3.36;80.91;100322.22;5047977;28;20064;-67
2022/03/31 04:38:02;;;;;;;2.70;2.10;;;;;;;3.31;80.90;100322.28;5046530;28;20471;-66
2022/03/31 04:40:27;;;;;;;2.30;2.10;;;;;;;3.36;80.63;100320.50;5046741;28;20025;-66
2022/03/31 04:42:52;;;;;;;5.00;2.20;;;;;;;3.30;81.14;100320.56;5047244;28;20029;-69
2022/03/31 04:45:18;;;;;;;3.97;2.13;;;;;;;3.39;80.65;100325.66;5046736;28;20454;-67
2022/03/31 04:47:43;;;;;;;5.50;2.38;;;;;;;3.16;81.56;100318.09;5046859;28;20024;-68
2022/03/31 04:50:09;;;;;;;4.70;2.30;;;;;;;3.14;81.40;100319.88;5046156;28;20092;-68
2022/03/31 04:52:34;;;;;;;3.15;1.80;;;;;;;3.15;81.40;100321.59;5046211;28;20025;-69
2022/03/31 04:54:59;;;;;;;3.53;2.05;;;;;;;3.16;81.82;100318.09;5045987;28;20017;-67
2022/03/31 04:57:24;;;;;;;1.95;1.80;;;;;;;3.39;80.80;100314.38;5046088;28;20033;-68
2022/03/31 04:59:50;;;;;;;2.60;2.33;;;;;;;3.52;80.69;100321.16;5045566;28;20025;-66
2022/03/31 05:02:15;;;;;;;4.82;2.15;;;;;;;3.57;80.13;100315.88;5043936;28;20126;-69
2022/03/31 05:04:41;;;;;;;3.35;2.30;;;;;;;3.22;81.22;100314.59;5045611;28;20109;-68
2022/03/31 05:07:06;;;;;;;4.47;2.38;;;;;;;3.20;81.30;100319.81;5044876;28;20525;-68
2022/03/31 05:09:32;;;;;;;4.10;2.10;;;;;;;3.10;81.84;100307.78;5045924;28;20044;-67
2022/03/31 05:11:57;;;;;;;3.55;2.40;;;;;;;3.14;81.78;100312.06;5045465;28;20033;-67
2022/03/31 05:14:23;;;;;;;7.43;2.00;;;;;;;3.24;81.37;100305.88;5045284;28;20467;-68
2022/03/31 05:16:48;;;;;;;4.72;2.20;;;;;;;3.40;81.25;100308.28;5045537;28;20024;-67
2022/03/31 05:19:13;;;;;;;7.03;2.40;;;;;;;3.45;81.21;100308.22;5045272;28;20379;-68
2022/03/31 05:21:39;;;;;;;4.25;2.45;;;;;;;3.33;81.28;100298.81;5045684;28;20025;-67
2022/03/31 05:24:05;;;;;;;4.43;2.40;;;;;;;3.39;81.14;100298.75;5046061;28;20087;-66
2022/03/31 05:26:30;;;;;;;5.07;2.35;;;;;;;3.35;81.44;100307.47;5026404;28;20595;-67
2022/03/31 05:28:56;;;;;;;7.60;2.72;;;;;;;3.27;81.67;100307.56;5046081;28;20025;-67
2022/03/31 05:31:21;;;;;;;8.43;2.38;;;;;;;3.41;81.62;100312.63;5044546;28;20032;-67
2022/03/31 05:33:47;;;;;;;3.42;2.20;;;;;;;3.46;80.80;100305.59;5045520;28;20009;-67
2022/03/31 05:36:12;;;;;;;7.70;2.13;;;;;;;3.38;81.35;100308.31;5043115;28;20052;-68
2022/03/31 05:38:37;;;;;;;5.07;2.00;;;;;;;3.34;80.92;100306.59;5044741;28;20427;-68
2022/03/31 05:41:03;;;;;;;7.90;1.88;;;;;;;3.23;81.36;100313.69;5043747;28;20522;-68
2022/03/31 05:43:28;;;;;;;7.93;1.95;;;;;;;3.23;81.38;100311.09;5028089;28;20038;-67
2022/03/31 05:45:53;;;;;;;2.17;1.73;;;;;;;3.40;80.92;100313.47;5039891;28;20066;-69
2022/03/31 05:48:19;;;;;;;4.00;2.10;;;;;;;3.38;80.46;100310.94;5026633;28;20479;-67
2022/03/31 05:50:44;;;;;;;5.70;2.05;;;;;;;3.29;80.84;100303.22;5023203;28;20075;-65
2022/03/31 05:53:10;;;;;;;5.90;2.30;;;;;;;3.32;80.70;100304.91;5033064;28;20025;-65
2022/03/31 05:55:36;;;;;;;3.83;1.80;;;;;;;3.29;81.19;100295.41;5036984;28;20036;-62
2022/03/31 05:58:02;;;;;;;5.03;1.80;;;;;;;3.41;80.94;100299.59;5035403;28;20056;-64
2022/03/31 06:00:28;;;;;;;3.75;1.70;;;;;;;3.53;80.32;100293.38;5034987;28;20017;-63
2022/03/31 06:02:55;;;;;;;6.13;2.00;;;;;;;3.58;79.82;100290.69;5025795;28;20086;-64
2022/03/31 06:05:21;;;;;;;4.38;2.10;;;;;;;3.43;80.10;100284.78;5037538;28;20113;-62
2022/03/31 06:07:47;;;;;;;8.23;1.90;;;;;;;3.63;79.23;100288.88;5040043;28;20527;-62
2022/03/31 06:10:12;;;;;;;4.63;1.90;;;;;;;3.43;79.65;100283.94;5042599;28;20086;-63
2022/03/31 06:12:37;;;;;;;3.63;1.50;;;;;;;3.64;79.23;100287.97;5044611;28;20025;-63
2022/03/31 06:15:07;;;;;;;6.10;2.20;;;;;;;3.47;79.33;100286.50;5044245;28;20017;-63
2022/03/31 06:17:33;;;;;;;2.92;1.88;;;;;;;3.60;79.19;100289.78;5041087;28;20029;-64
2022/03/31 06:19:58;;;;;;;7.13;1.80;;;;;;;3.74;79.02;100287.00;5035754;28;20115;-67
2022/03/31 06:22:24;;;;;;;7.80;1.73;;;;;;;3.92;78.67;100292.81;5043985;28;20495;-65
2022/03/31 06:24:49;;;;;;;2.42;1.88;;;;;;;3.98;78.88;100290.13;5043196;28;20052;-66
2022/03/31 06:27:15;;;;;;;12.85;2.20;;;;;;;4.08;78.63;100287.34;5043293;28;20029;-64
2022/03/31 06:29:42;;;;;;;4.75;1.90;;;;;;;4.24;77.73;100294.03;5044190;28;20335;-61
2022/03/31 06:32:07;;;;;;;7.90;2.20;;;;;;;4.28;77.42;100295.72;5043323;28;20112;-66
2022/03/31 06:34:33;;;;;;;6.43;2.42;;;;;;;4.53;76.62;100297.91;5027297;28;20133;-66
2022/03/31 06:36:58;;;;;;;4.10;2.28;;;;;;;4.64;76.62;100294.25;5043600;28;20487;-66
2022/03/31 06:39:25;;;;;;;7.45;2.65;;;;;;;4.60;76.88;100301.28;5043938;28;20028;-66
2022/03/31 06:41:51;;;;;;;9.38;4.55;;;;;;;4.56;76.76;100307.44;5044525;28;20078;-69
2022/03/31 06:44:19;;;;;;;11.43;6.07;;;;;;;4.53;77.02;100299.66;5043771;28;20029;-69
2022/03/31 06:46:46;;;;;;;10.75;5.03;;;;;;;4.58;77.34;100307.41;5041429;28;20025;-70
2022/03/31 06:49:11;;;;;;;14.80;5.47;;;;;;;4.34;76.96;100301.72;5035324;28;20506;-69
2022/03/31 06:51:37;;;;;;;12.95;5.30;;;;;;;4.26;77.58;100301.84;5043393;28;20025;-64
2022/03/31 06:54:03;;;;;;;11.70;5.57;;;;;;;4.14;78.48;100300.28;5044997;28;20112;-65
2022/03/31 06:56:28;;;;;;;8.50;5.20;;;;;;;4.33;78.24;100306.06;5043471;28;20029;-66
2022/03/31 06:58:54;;;;;;;10.98;5.70;;;;;;;4.46;77.79;100293.69;5040082;28;20475;-65
2022/03/31 07:01:20;;;;;;;6.38;4.57;;;;;;;4.43;77.95;100296.38;5048363;28;20025;-64
2022/03/31 07:03:45;;;;;;;8.23;4.13;;;;;;;4.72;77.08;100288.91;5047518;28;20025;-66
2022/03/31 07:06:10;;;;;;;10.75;3.80;;;;;;;4.66;77.76;100295.94;5047375;28;20052;-64
2022/03/31 07:08:36;;;;;;;6.78;3.58;;;;;;;4.55;77.02;100283.06;5047786;28;20033;-66
2022/03/31 07:11:03;;;;;;;4.55;3.70;;;;;;;4.64;76.43;100294.25;5048850;28;20044;-63
2022/03/31 07:13:28;;;;;;;7.70;3.30;;;;;;;4.72;75.42;100286.28;5046997;28;20029;-63
2022/03/31 07:15:54;;;;;;;5.05;3.22;;;;;;;4.86;75.34;100284.28;5048322;28;20029;-63
2022/03/31 07:18:19;;;;;;;7.63;3.17;;;;;;;5.33;73.83;100279.88;5047726;28;20033;-63
2022/03/31 07:20:44;;;;;;;5.82;2.50;;;;;;;5.51;73.90;100282.09;5047571;28;20032;-71
2022/03/31 07:23:10;;;;;;;4.85;2.97;;;;;;;5.60;73.08;100288.84;5045719;28;20419;-64
2022/03/31 07:25:35;;;;;;;6.85;3.50;;;;;;;5.75;72.61;100285.03;5046088;28;20394;-62
2022/03/31 07:28:01;;;;;;;4.22;2.97;;;;;;;5.76;72.57;100289.41;5047420;28;20029;-64
2022/03/31 07:30:26;;;;;;;5.63;2.47;;;;;;;6.02;71.61;100295.75;5046073;28;20098;-64
2022/03/31 07:32:55;;;;;;;2.40;1.92;;;;;;;5.61;71.66;100300.19;5047563;28;20441;-63
2022/03/31 07:35:21;;;;;;;;;;;;;;;5.61;71.34;100305.41;5047662;28;20032;-62
2022/03/31 07:37:48;;;;;;;3.78;2.05;;;;;;;5.25;70.54;100298.31;5045634;28;19913;-65
2022/03/31 07:40:13;;;;;;;4.72;2.40;;;;;;;5.05;71.94;100300.44;5030271;28;20020;-62
2022/03/31 07:42:39;;;;;;;5.00;2.08;;;;;;;5.02;73.15;100297.88;5047461;28;20040;-63
2022/03/31 07:45:05;;;;;;;3.25;2.20;;;;;;;4.98;72.69;100284.91;5046031;28;20033;-65
2022/03/31 07:47:31;;;;;;;3.70;2.45;;;;;;;5.37;72.05;100289.38;5047460;28;20082;-62
2022/03/31 07:49:56;;;;;;;4.53;2.40;;;;;;;5.61;71.53;100287.13;5046836;28;20421;-64
2022/03/31 07:52:22;;;;;;;5.15;2.58;;;;;;;5.60;71.39;100285.41;5046464;28;20396;-62
2022/03/31 07:54:48;;;;;;;6.30;2.55;;;;;;;5.70;70.44;100292.16;5043529;28;20452;-64
2022/03/31 07:57:13;;;;;;;3.30;2.10;;;;;;;5.75;69.23;100286.81;5046256;28;20029;-63
2022/03/31 07:59:39;;;;;;;3.22;2.10;;;;;;;6.10;68.95;100279.91;5045076;28;20090;-63
2022/03/31 08:02:05;;;;;;;2.38;2.17;;;;;;;6.01;69.02;100283.59;5046739;28;20060;-61
2022/03/31 08:04:30;;;;;;;4.30;2.42;;;;;;;6.16;68.94;100281.53;5046359;28;20103;-63
2022/03/31 08:06:56;;;;;;;5.95;2.63;;;;;;;5.96;69.19;100276.75;5026989;28;20132;-63
2022/03/31 08:09:21;;;;;;;4.88;3.03;;;;;;;5.84;70.08;100280.53;5045538;28;20425;-62
2022/03/31 08:11:49;;;;;;;5.28;2.90;;;;;;;5.91;69.69;100274.25;5045617;28;20032;-62
2022/03/31 08:14:16;;;;;;;3.65;2.55;;;;;;;5.99;71.15;100279.31;5029164;28;20017;-61
2022/03/31 08:16:46;;;;;;;6.03;2.97;;;;;;;6.13;69.67;100282.47;5045640;28;20124;-62
2022/03/31 08:19:15;;;;;;;;;;;;;;;6.60;68.87;100290.91;5047626;28;20017;-62
2022/03/31 08:21:42;;;;;;;4.57;3.13;;;;;;;6.37;68.80;100280.13;5006674;28;19921;-62
2022/03/31 08:24:08;;;;;;;4.03;3.05;;;;;;;6.37;69.55;100284.50;5029845;28;20057;-61
2022/03/31 08:26:33;;;;;;;3.50;3.15;;;;;;;6.37;69.07;100284.50;5035942;28;20064;-64
2022/03/31 08:28:58;;;;;;;5.72;2.80;;;;;;;6.57;68.65;100284.84;5043140;28;20170;-65
2022/03/31 08:31:25;;;;;;;4.22;2.67;;;;;;;6.79;67.59;100278.19;5041596;28;20442;-63
2022/03/31 08:33:50;;;;;;;4.30;2.75;;;;;;;6.33;68.54;100275.88;5040285;28;20021;-62
2022/03/31 08:36:16;;;;;;;2.78;2.58;;;;;;;6.29;68.45;100287.34;5036039;28;20079;-64
2022/03/31 08:38:41;;;;;;;3.88;2.67;;;;;;;6.17;68.58;100283.25;5036405;28;20380;-63
2022/03/31 08:41:06;;;;;;;3.08;2.63;;;;;;;6.43;67.48;100280.00;5035401;28;20020;-64
2022/03/31 08:43:32;;;;;;;3.80;2.65;;;;;;;6.91;66.12;100279.59;5036487;28;20028;-63
2022/03/31 08:45:57;;;;;;;4.03;2.47;;;;;;;7.14;65.39;100271.13;5039123;28;20034;-63
2022/03/31 08:48:24;;;;;;;2.72;2.53;;;;;;;7.08;65.47;100279.16;5018873;28;20568;-61
2022/03/31 08:50:49;;;;;;;5.43;3.25;;;;;;;7.04;65.90;100274.88;5040898;28;20047;-62
2022/03/31 08:53:15;;;;;;;5.07;3.35;;;;;;;6.97;66.47;100271.59;5027424;28;20475;-63
2022/03/31 08:55:40;;;;;;;4.47;2.85;;;;;;;7.00;66.93;100268.88;5040819;28;20045;-65
2022/03/31 08:58:06;;;;;;;3.35;2.90;;;;;;;7.43;64.81;100263.28;5045831;28;20116;-63
2022/03/31 09:00:31;;;;;;;4.78;2.78;;;;;;;7.35;64.69;100271.41;5045307;28;20354;-63
2022/03/31 09:03:02;;;;;;;3.35;2.75;;;;;;;7.11;64.82;100267.72;5038782;28;20029;-62
2022/03/31 09:05:35;;;;;;;3.72;2.70;;;;;;;7.13;66.34;100268.53;5030437;28;20026;-63
2022/03/31 09:08:02;;;;;;;2.55;2.25;;;;;;;7.37;63.62;100261.69;5035381;28;20429;-62
2022/03/31 09:10:36;;;;;;;2.35;2.15;;;;;;;7.25;63.64;100265.53;5041011;28;20029;-61
2022/03/31 09:13:04;;;;;;;2.10;1.90;;;;;;;6.73;64.88;100271.34;5045845;28;20029;-62
2022/03/31 09:15:30;;;;;;;2.10;2.00;;;;;;;6.73;64.78;100271.34;5026224;28;20017;-63
2022/03/31 09:17:57;;;;;;;2.60;2.20;;;;;;;6.31;66.58;100264.59;5045677;28;20095;-62
2022/03/31 09:20:22;;;;;;;3.03;2.72;;;;;;;6.82;65.94;100268.50;5044445;28;20025;-61
2022/03/31 09:22:49;;;;;;;2.00;1.83;;;;;;;6.67;66.15;100271.53;5042777;28;20580;-61
2022/03/31 09:25:25;;;;;;;2.85;1.90;;;;;;;6.66;66.58;100268.06;5044870;28;20372;-62
2022/03/31 09:27:50;;;;;;;2.05;1.92;;;;;;;7.05;65.77;100261.72;5037015;28;20021;-62
2022/03/31 09:30:17;;;;;;;8.90;2.75;;;;;;;6.97;65.52;100275.94;5039676;28;20124;-62
2022/03/31 09:32:49;;;;;;;2.08;1.98;;;;;;;6.71;64.73;100267.91;5041384;28;20439;-62
2022/03/31 09:35:18;;;;;;;2.20;2.00;;;;;;;6.27;65.62;100269.06;5039196;28;20387;-62
2022/03/31 09:37:44;;;;;;;2.05;1.85;;;;;;;6.73;64.93;100271.34;5040010;28;20078;-61
2022/03/31 09:40:10;;;;;;;2.65;2.45;;;;;;;6.91;64.68;100271.75;5027117;28;20029;-61
2022/03/31 09:42:35;;;;;;;2.78;2.50;;;;;;;6.85;64.53;100267.53;5024603;28;20083;-61
2022/03/31 09:45:03;;;;;;;2.65;2.45;;;;;;;6.88;65.61;100270.09;5025161;28;20021;-62
2022/03/31 09:47:28;;;;;;;2.40;2.22;;;;;;;6.55;66.62;100267.47;5021155;28;20105;-63
2022/03/31 09:49:57;;;;;;;6.43;2.42;;;;;;;6.89;66.14;100258.69;5033533;28;20503;-61
2022/03/31 09:52:23;;;;;;;3.35;2.35;;;;;;;6.57;66.98;100265.69;5035931;28;20021;-63
2022/03/31 09:54:49;;;;;;;3.50;2.30;;;;;;;6.54;66.75;100271.84;5035560;28;20017;-61
2022/03/31 09:57:20;;;;;;;2.70;2.50;;;;;;;6.80;66.30;100259.81;5032845;28;20034;-59
2022/03/31 09:59:50;;;;;;;2.63;2.10;;;;;;;6.81;66.33;100258.91;5025302;28;20385;-61
2022/03/31 10:02:15;;;;;;;4.43;2.28;;;;;;;6.41;66.88;100265.22;5025009;28;20021;-62
2022/03/31 10:04:43;;;;;;;3.15;2.20;;;;;;;6.54;66.57;100263.97;5001488;28;20471;-62
2022/03/31 10:07:09;;;;;;;2.30;2.10;;;;;;;6.34;67.05;100259.28;5043477;28;20522;-60
2022/03/31 10:09:39;;;;;;;4.80;2.40;;;;;;;6.25;67.26;100257.75;5040502;28;20056;-62
2022/03/31 10:12:29;;;;;;;5.13;2.45;;;;;;;6.16;67.76;100266.69;5024169;28;20029;-62
2022/03/31 10:14:59;;;;;;;2.40;2.20;;;;;;;5.90;68.64;100264.69;5023916;28;20029;-64
2022/03/31 10:17:27;;;;;;;2.35;2.15;;;;;;;6.19;68.16;100257.91;5023493;28;20446;-62
2022/03/31 10:19:53;;;;;;;4.07;2.72;;;;;;;6.12;69.06;100258.97;5036149;28;20056;-62
2022/03/31 10:25:09;;;;;;;2.15;1.95;;;;;;;6.28;68.00;100249.84;5036133;28;20122;-59
2022/03/31 10:27:37;;;;;;;2.28;2.08;;;;;;;6.72;67.07;100253.94;5033304;28;20032;-63
2022/03/31 10:30:10;;;;;;;2.42;2.22;;;;;;;6.72;67.64;100253.94;5036209;28;20021;-62
2022/03/31 10:32:35;;;;;;;5.30;2.40;;;;;;;6.56;67.69;100254.34;5036101;28;20057;-61
2022/03/31 10:35:01;;;;;;;3.35;2.67;;;;;;;6.79;66.46;100250.25;5026537;28;20021;-59
2022/03/31 10:37:31;;;;;;;3.30;2.85;;;;;;;6.76;67.17;100252.06;5045533;28;20037;-61
2022/03/31 10:39:57;;;;;;;3.08;2.25;;;;;;;7.33;65.75;100242.59;5030640;28;20069;-63
2022/03/31 10:42:23;;;;;;;2.38;2.17;;;;;;;7.44;65.00;100247.50;5047276;28;20120;-61
2022/03/31 10:44:49;;;;;;;2.55;2.35;;;;;;;7.18;64.89;100245.66;5048800;28;20468;-61
2022/03/31 10:47:14;;;;;;;2.53;2.35;;;;;;;7.18;65.14;100243.06;5028820;28;20035;-61
2022/03/31 10:49:51;;;;;;;3.80;2.30;;;;;;;7.19;64.37;100236.91;5048716;28;20060;-60
2022/03/31 10:52:19;;;;;;;2.63;2.42;;;;;;;7.02;64.74;100242.63;5039569;28;20028;-66
2022/03/31 10:54:46;;;;;;;3.97;2.23;;;;;;;7.19;65.20;100231.66;5037605;28;20112;-64
2022/03/31 10:57:13;;;;;;;3.13;2.50;;;;;;;7.46;65.17;100226.50;5047584;28;20415;-62
2022/03/31 10:59:39;;;;;;;2.20;2.08;;;;;;;7.77;63.74;100225.50;5042314;28;20040;-64
2022/03/31 11:02:13;;;;;;;3.33;2.70;;;;;;;8.06;63.09;100228.97;5036497;28;20032;-64
2022/03/31 11:04:47;;;;;;;3.67;2.72;;;;;;;7.87;63.10;100231.34;5028502;28;20030;-61
2022/03/31 11:07:24;;;;;;;3.58;2.58;;;;;;;8.00;62.45;100229.16;5044171;28;20055;-60
2022/03/31 11:10:09;;;;;;;2.92;2.67;;;;;;;7.57;63.97;100223.53;5027633;28;20029;-63
2022/03/31 11:12:36;;;;;;;2.80;2.60;;;;;;;7.28;65.39;100228.78;5038384;28;20033;-62
2022/03/31 11:15:07;;;;;;;5.85;2.75;;;;;;;7.46;63.91;100229.97;5038865;28;20021;-62
2022/03/31 11:17:33;;;;;;;2.97;2.78;;;;;;;7.11;65.67;100228.41;5037717;28;20075;-63
2022/03/31 11:20:03;;;;;;;2.92;2.72;;;;;;;7.36;64.88;100223.31;5041658;28;20048;-62
2022/03/31 11:22:29;;;;;;;2.92;2.67;;;;;;;7.33;64.72;100224.25;5046666;28;20025;-65
2022/03/31 11:25:10;;;;;;;4.07;2.90;;;;;;;7.25;64.91;100225.41;5047092;28;20426;-63
2022/03/31 11:27:37;;;;;;;3.97;3.40;;;;;;;7.00;65.46;100223.47;5029577;28;20029;-63
2022/03/31 11:30:05;;;;;;;3.38;3.17;;;;;;;6.63;67.12;100218.41;5040991;28;20036;-63
2022/03/31 11:32:32;;;;;;;5.35;3.60;;;;;;;6.72;67.82;100213.78;5041804;28;20032;-63
2022/03/31 11:34:58;;;;;;;4.55;3.45;;;;;;;7.05;66.79;100216.34;5046775;28;20017;-64
2022/03/31 11:37:24;;;;;;;3.97;3.58;;;;;;;7.06;66.80;100208.47;5040574;28;20025;-63
2022/03/31 11:39:49;;;;;;;5.03;3.42;;;;;;;6.96;67.08;100209.63;5043260;28;20035;-62
2022/03/31 11:42:15;;;;;;;3.72;3.42;;;;;;;7.16;66.69;100206.41;5046741;28;20035;-60